T22 weather

Charles L Kelly Army Heliport
Fort Sam Houston, Texas, United States

Public forecast

Using degrees Fahrenheit for public forecast. Weather courtesy of forecast.io.

METAR (pilot weather report)

Closest report is San Antonio International Airport, 4.9 nm (9.0 km) NW. Retrieved 2019/09/22 22:51 UTC (35 minutes ago):

KSAT 222251Z 15004KT 10SM SCT065 SCT250 34/17 A2993 RMK AO2 SLP115 T03440172

TAF (pilot weather forecast)

Closest forecast is San Antonio International Airport, 4.9 nm (9.0 km) NW. Retrieved 2019/09/22 18:42 UTC (5 hours ago):

TAF KSAT 221739Z 2218/2324 16009KT P6SM BKN035 FM222000 17012KT P6SM SCT050 FM230200 14012KT P6SM FEW060 FM230600 14007KT P6SM BKN012 TEMPO 2311/2314 BKN009 FM231600 16008KT P6SM SCT040